Sonnblick Mtn, Austria
Current Conditions -  °F | °C
As of 5:20 PM on Thursday 23 Oct 2014 (Local Time) from LOWS Reporting Station
Light Rain Light Rain  
Wind Chill: 38°   Ceiling: 2000
Heat Index: 43°   Visibility: 6mi
Dew Point: 39°   Wind: 8mph
Humidity: 87%   Direction: 200°SSW
Pressure: 30.18"   Gusts: NA
Location:  47.05°N, 12.95°E
Report Text: LOWS 231520Z 20007KT 170V230 9000 -RA FEW005 SCT016 BKN020 06/04 Q1022 TEMPO RA
Loading
Personal Weather Stations






























Interactive Weather Map
Tropical Storm Tracking
New forecast layout! Learn more

10-Day Weather Forecast

Advertisements
Track Severe Weather on mobile